createdAt,value
2019-04-21T00:01:10.199Z,25.57
2019-04-21T00:03:50.175Z,23.40
2019-04-21T00:06:45.604Z,24.37
2019-04-21T00:09:26.901Z,25.35
2019-04-21T00:11:55.282Z,18.12
2019-04-21T00:14:27.559Z,21.23
2019-04-21T00:17:02.807Z,20.57
2019-04-21T00:19:36.654Z,19.17
2019-04-21T00:22:24.733Z,17.70
2019-04-21T00:25:09.025Z,15.65
2019-04-21T00:27:51.619Z,22.85
2019-04-21T00:30:36.246Z,21.23
2019-04-21T00:32:59.978Z,19.23
2019-04-21T00:35:31.217Z,20.97
2019-04-21T00:38:25.056Z,20.77
2019-04-21T00:41:05.475Z,20.12
2019-04-21T00:43:38.899Z,19.37
2019-04-21T00:46:08.496Z,21.27
2019-04-21T00:48:59.952Z,20.97
2019-04-21T00:51:51.094Z,21.77
2019-04-21T00:54:29.358Z,23.12
2019-04-21T00:57:05.319Z,22.90
2019-04-21T00:59:38.331Z,25.70
2019-04-21T01:02:09.828Z,26.82
2019-04-21T01:04:53.863Z,29.50
2019-04-21T01:07:28.189Z,30.25
2019-04-21T01:09:58.696Z,21.17
2019-04-21T01:12:43.420Z,17.60
2019-04-21T01:17:56.077Z,18.65
2019-04-21T01:20:17.497Z,17.30
2019-04-21T01:22:54.068Z,17.80
2019-04-21T01:25:37.284Z,16.15
2019-04-21T01:28:24.172Z,17.12
2019-04-21T01:31:05.684Z,16.32
2019-04-21T01:33:44.989Z,15.60
2019-04-21T01:36:18.411Z,16.48
2019-04-21T01:39:00.946Z,16.05
2019-04-21T01:41:43.098Z,16.80
2019-04-21T01:44:22.417Z,16.42
2019-04-21T01:46:48.695Z,16.35
2019-04-21T01:49:21.893Z,15.75
2019-04-21T01:52:17.832Z,18.48
2019-04-21T01:54:57.660Z,17.23
2019-04-21T01:57:33.312Z,17.85
2019-04-21T02:00:02.666Z,16.82
2019-04-21T02:02:54.549Z,17.80
2019-04-21T02:05:32.910Z,17.60
2019-04-21T02:08:09.848Z,17.60
2019-04-21T02:10:46.195Z,18.23
2019-04-21T02:13:16.897Z,18.40
2019-04-21T02:16:01.037Z,18.35
2019-04-21T02:18:36.453Z,17.48
2019-04-21T02:21:00.493Z,17.37
2019-04-21T02:24:01.901Z,18.12
2019-04-21T02:26:37.493Z,17.67
2019-04-21T02:29:14.311Z,18.05
2019-04-21T02:32:08.936Z,17.73
2019-04-21T02:37:30.848Z,17.82
2019-04-21T02:39:57.739Z,19.62
2019-04-21T02:42:32.858Z,19.20
2019-04-21T02:50:28.322Z,18.57
2019-04-21T02:55:36.355Z,17.48
2019-04-21T02:58:32.726Z,17.40
2019-04-21T03:01:08.038Z,17.17
2019-04-21T03:03:49.200Z,15.83
2019-04-21T03:06:54.235Z,16.00
2019-04-21T03:09:24.115Z,15.30
2019-04-21T03:12:07.095Z,16.02
2019-04-21T03:17:14.617Z,16.25
2019-04-21T03:22:25.095Z,14.63
2019-04-21T03:27:57.345Z,15.83
2019-04-21T03:38:20.770Z,16.30
2019-04-21T03:40:50.989Z,15.70
2019-04-21T03:46:09.949Z,14.78
2019-04-21T03:53:59.709Z,15.43
2019-04-21T03:59:16.555Z,15.88
2019-04-21T04:02:06.798Z,16.07
2019-04-21T04:04:56.865Z,16.10
2019-04-21T04:07:41.905Z,16.50
2019-04-21T04:10:14.088Z,15.53
2019-04-21T04:12:54.697Z,15.95
2019-04-21T04:15:42.190Z,14.45
2019-04-21T04:18:04.175Z,14.98
2019-04-21T04:20:45.471Z,15.95
2019-04-21T04:23:31.019Z,15.95
2019-04-21T04:26:09.274Z,16.30
2019-04-21T04:34:12.723Z,16.25
2019-04-21T04:49:59.721Z,19.05
2019-04-21T04:52:41.926Z,18.25
2019-04-21T04:55:19.045Z,21.60
2019-04-21T04:58:01.029Z,19.27
2019-04-21T05:09:07.831Z,18.90
2019-04-21T05:22:14.257Z,20.62
2019-04-21T05:24:41.926Z,21.33
2019-04-21T05:27:30.739Z,24.45
2019-04-21T05:30:17.379Z,26.55
2019-04-21T05:33:00.037Z,25.55
2019-04-21T05:35:45.269Z,21.50
2019-04-21T05:38:21.744Z,20.55
2019-04-21T05:40:55.249Z,20.85
2019-04-21T05:43:40.231Z,19.82
2019-04-21T05:46:21.725Z,19.60
2019-04-21T05:49:10.507Z,20.08
2019-04-21T05:51:57.146Z,18.98
2019-04-21T05:54:44.038Z,18.85
2019-04-21T05:57:14.809Z,19.40
2019-04-21T05:59:53.329Z,19.67
2019-04-21T06:02:52.018Z,19.67
2019-04-21T06:05:20.302Z,19.10
2019-04-21T06:07:59.044Z,21.30
2019-04-21T06:10:34.923Z,20.77
2019-04-21T06:13:13.399Z,20.27
2019-04-21T06:16:02.698Z,20.27
2019-04-21T06:18:37.994Z,21.68
2019-04-21T06:21:05.599Z,20.10
2019-04-21T06:23:42.375Z,20.62
2019-04-21T06:28:56.898Z,23.30
2019-04-21T06:32:16.323Z,25.23
2019-04-21T06:34:16.348Z,21.25
2019-04-21T06:37:02.859Z,18.90
2019-04-21T06:39:40.413Z,18.82
2019-04-21T06:42:09.126Z,21.25
2019-04-21T06:47:39.447Z,14.15
2019-04-21T06:50:11.999Z,15.85
2019-04-21T06:55:22.448Z,14.47
2019-04-21T06:57:58.184Z,16.32
2019-04-21T07:00:38.448Z,15.83
2019-04-21T07:03:25.329Z,16.05
2019-04-21T07:06:09.442Z,15.70
2019-04-21T07:08:53.194Z,16.60
2019-04-21T07:11:25.287Z,15.58
2019-04-21T07:14:22.580Z,16.05
2019-04-21T07:16:59.704Z,16.35
2019-04-21T07:19:34.908Z,16.00
2019-04-21T07:22:12.367Z,15.65
2019-04-21T07:24:51.907Z,16.15
2019-04-21T07:27:28.981Z,15.53
2019-04-21T07:30:11.482Z,14.00
2019-04-21T07:32:40.196Z,14.20
2019-04-21T07:35:23.601Z,14.33
2019-04-21T07:38:01.313Z,14.33
2019-04-21T07:40:29.045Z,13.70
2019-04-21T07:43:05.687Z,13.22
2019-04-21T07:45:52.468Z,12.88
2019-04-21T07:48:50.097Z,12.60
2019-04-21T07:51:31.638Z,13.15
2019-04-21T07:54:10.363Z,12.50
2019-04-21T07:56:34.568Z,13.50
2019-04-21T07:59:35.239Z,12.10
2019-04-21T08:02:01.176Z,12.15
2019-04-21T08:04:55.298Z,12.70
2019-04-21T08:07:21.972Z,11.57
2019-04-21T08:09:51.664Z,11.50
2019-04-21T08:12:24.099Z,9.78
2019-04-21T08:15:15.724Z,10.65
2019-04-21T08:17:47.163Z,10.90
2019-04-21T08:20:28.607Z,10.32
2019-04-21T08:23:37.038Z,10.65
2019-04-21T08:26:26.148Z,10.13
2019-04-21T08:29:07.693Z,9.73
2019-04-21T08:31:48.593Z,9.58
2019-04-21T08:36:52.716Z,8.85
2019-04-21T08:39:45.533Z,8.95
2019-04-21T08:42:16.915Z,9.50
2019-04-21T08:45:10.714Z,9.00
2019-04-21T08:47:47.714Z,8.88
2019-04-21T08:50:21.193Z,9.48
2019-04-21T08:53:04.058Z,9.75
2019-04-21T08:58:47.911Z,9.90
2019-04-21T09:01:34.650Z,7.95
2019-04-21T09:06:54.115Z,7.65
2019-04-21T09:09:20.607Z,8.15
2019-04-21T09:12:01.354Z,6.83
2019-04-21T09:14:36.671Z,6.65
2019-04-21T09:17:07.784Z,6.95
2019-04-21T09:22:29.876Z,7.97
2019-04-21T09:25:01.482Z,9.23
2019-04-21T09:27:41.924Z,8.58
2019-04-21T09:30:04.835Z,7.90
2019-04-21T09:32:40.455Z,8.75
2019-04-21T09:35:18.327Z,8.08
2019-04-21T09:38:02.187Z,8.40
2019-04-21T09:40:37.189Z,9.00
2019-04-21T09:43:11.958Z,9.28
2019-04-21T09:45:47.608Z,9.58
2019-04-21T09:48:24.742Z,9.03
2019-04-21T09:51:01.942Z,9.08
2019-04-21T09:53:40.156Z,9.28
2019-04-21T09:56:19.841Z,8.75
2019-04-21T09:59:05.541Z,8.43
2019-04-21T10:01:46.201Z,8.58
2019-04-21T10:04:09.939Z,8.80
2019-04-21T10:06:45.880Z,8.18
2019-04-21T10:09:24.827Z,8.25
2019-04-21T10:12:01.159Z,7.78
2019-04-21T10:14:37.059Z,8.25
2019-04-21T10:17:21.641Z,7.97
2019-04-21T10:19:58.737Z,8.35
2019-04-21T10:22:35.083Z,7.65
2019-04-21T10:25:12.808Z,7.87
2019-04-21T10:27:53.389Z,7.92
2019-04-21T10:30:32.937Z,6.35
2019-04-21T10:33:10.415Z,7.15
2019-04-21T10:35:46.784Z,7.25
2019-04-21T10:38:33.209Z,6.70
2019-04-21T10:41:01.344Z,6.83
2019-04-21T10:43:37.558Z,6.65
2019-04-21T10:46:14.860Z,6.42
2019-04-21T10:48:50.970Z,6.75
2019-04-21T10:51:27.145Z,6.10
2019-04-21T10:54:04.051Z,5.75
2019-04-21T10:56:43.443Z,5.40
2019-04-21T10:59:18.348Z,5.30
2019-04-21T11:01:54.910Z,5.15
2019-04-21T11:04:36.434Z,4.67
2019-04-21T11:07:31.913Z,4.95
2019-04-21T11:10:07.946Z,3.83
2019-04-21T11:12:44.727Z,4.28
2019-04-21T11:15:23.370Z,3.67
2019-04-21T11:17:59.885Z,3.92
2019-04-21T11:20:37.150Z,3.72
2019-04-21T11:23:14.220Z,3.92
2019-04-21T11:25:51.634Z,3.83
2019-04-21T11:28:29.143Z,4.33
2019-04-21T11:31:06.913Z,3.80
2019-04-21T11:33:43.147Z,4.08
2019-04-21T11:36:19.521Z,4.17
2019-04-21T11:39:19.965Z,4.00
2019-04-21T11:41:45.625Z,4.40
2019-04-21T11:44:26.726Z,4.15
2019-04-21T11:47:00.554Z,5.25
2019-04-21T11:49:36.964Z,5.28
2019-04-21T11:52:14.246Z,4.35
2019-04-21T11:54:50.921Z,4.50
2019-04-21T11:57:30.736Z,4.37
2019-04-21T12:00:06.199Z,4.78
2019-04-21T12:02:43.629Z,4.60
2019-04-21T12:05:19.649Z,3.90
2019-04-21T12:07:58.372Z,4.08
2019-04-21T12:10:33.411Z,3.72
2019-04-21T12:13:10.053Z,4.05
2019-04-21T12:15:52.828Z,4.37
2019-04-21T12:18:32.481Z,4.92
2019-04-21T12:21:15.906Z,4.05
2019-04-21T12:23:57.080Z,4.72
2019-04-21T12:26:42.236Z,4.60
2019-04-21T12:32:56.095Z,4.45
2019-04-21T12:35:33.465Z,4.30
2019-04-21T12:38:10.861Z,4.05
2019-04-21T12:40:47.026Z,4.03
2019-04-21T12:43:46.588Z,3.87
2019-04-21T12:46:28.246Z,3.80
2019-04-21T12:49:20.229Z,3.95
2019-04-21T12:52:06.906Z,3.98
2019-04-21T12:54:57.776Z,3.17
2019-04-21T12:57:53.232Z,3.72
2019-04-21T13:00:38.886Z,3.10
2019-04-21T13:03:15.884Z,2.98
2019-04-21T13:05:53.773Z,3.15
2019-04-21T13:08:42.447Z,3.10
2019-04-21T13:11:09.474Z,3.60
2019-04-21T13:13:45.964Z,3.27
2019-04-21T13:16:23.377Z,2.98
2019-04-21T13:18:59.675Z,3.00
2019-04-21T13:21:36.144Z,3.12
2019-04-21T13:24:15.794Z,3.47
2019-04-21T13:27:18.887Z,3.00
2019-04-21T13:33:57.920Z,3.45
2019-04-21T13:37:03.512Z,3.33
2019-04-21T13:40:34.170Z,3.17
2019-04-21T13:43:12.289Z,3.30
2019-04-21T13:45:59.605Z,3.17
2019-04-21T13:48:48.396Z,3.52
2019-04-21T13:51:36.149Z,3.60
2019-04-21T13:54:29.625Z,3.17
2019-04-21T14:00:22.056Z,3.77
2019-04-21T14:07:02.491Z,3.55
2019-04-21T14:10:23.896Z,3.33
2019-04-21T14:13:30.310Z,3.25
2019-04-21T14:26:30.052Z,3.55
2019-04-21T14:29:25.739Z,3.42
2019-04-21T14:32:12.156Z,3.52
2019-04-21T14:34:56.738Z,3.30
2019-04-21T14:37:50.765Z,3.92
2019-04-21T14:40:39.271Z,3.92
2019-04-21T14:43:25.985Z,3.87
2019-04-21T14:46:10.965Z,4.25
2019-04-21T14:49:27.073Z,4.35
2019-04-21T14:52:25.286Z,3.90
2019-04-21T14:55:22.889Z,3.58
2019-04-21T14:58:07.331Z,3.62
2019-04-21T15:01:04.149Z,3.20
2019-04-21T15:03:41.971Z,3.52
2019-04-21T15:06:19.019Z,3.45
2019-04-21T15:08:57.674Z,3.40
2019-04-21T15:11:44.355Z,3.75
2019-04-21T15:14:40.261Z,3.12
2019-04-21T15:20:18.176Z,3.80
2019-04-21T15:23:02.195Z,4.05
2019-04-21T15:26:04.222Z,3.45
2019-04-21T15:28:51.067Z,3.60
2019-04-21T15:31:41.662Z,3.30
2019-04-21T15:34:25.899Z,3.60
2019-04-21T15:37:01.997Z,3.35
2019-04-21T15:39:38.473Z,3.55
2019-04-21T15:42:22.415Z,3.72
2019-04-21T15:45:01.125Z,3.12
2019-04-21T15:47:46.166Z,3.50
2019-04-21T15:50:35.730Z,3.20
2019-04-21T15:53:25.685Z,3.60
2019-04-21T15:56:20.841Z,3.90
2019-04-21T15:59:14.726Z,4.30
2019-04-21T16:02:14.875Z,3.17
2019-04-21T16:05:08.595Z,3.83
2019-04-21T16:07:47.933Z,5.72
2019-04-21T16:10:43.682Z,3.50
2019-04-21T16:13:23.624Z,3.77
2019-04-21T16:16:14.558Z,4.65
2019-04-21T16:19:03.936Z,3.50
2019-04-21T16:21:44.382Z,3.62
2019-04-21T16:24:19.103Z,3.83
2019-04-21T16:26:56.475Z,4.10
2019-04-21T16:29:33.314Z,5.62
2019-04-21T16:32:09.252Z,3.22
2019-04-21T16:34:50.786Z,3.62
2019-04-21T16:37:23.542Z,3.17
2019-04-21T16:39:59.673Z,3.87
2019-04-21T16:42:36.281Z,8.60
2019-04-21T16:45:13.138Z,4.00
2019-04-21T16:47:51.869Z,3.40
2019-04-21T16:50:27.932Z,3.90
2019-04-21T16:53:08.396Z,4.42
2019-04-21T16:55:53.298Z,3.37
2019-04-21T16:58:31.019Z,3.70
2019-04-21T17:01:19.829Z,4.12
2019-04-21T17:03:55.209Z,3.60
2019-04-21T17:06:31.274Z,3.70
2019-04-21T17:09:08.600Z,3.75
2019-04-21T17:11:46.530Z,4.05
2019-04-21T17:14:37.599Z,4.10
2019-04-21T17:17:27.222Z,4.50
2019-04-21T17:19:44.977Z,3.77
2019-04-21T17:22:15.691Z,3.80
2019-04-21T17:24:52.636Z,3.70
2019-04-21T17:27:29.210Z,4.08
2019-04-21T17:30:10.702Z,4.45
2019-04-21T17:32:49.437Z,4.70
2019-04-21T17:35:24.815Z,4.60
2019-04-21T17:38:01.666Z,5.50
2019-04-21T17:40:37.937Z,6.50
2019-04-21T17:43:17.863Z,6.58
2019-04-21T17:45:53.122Z,7.67
2019-04-21T17:48:29.398Z,6.42
2019-04-21T17:51:07.579Z,5.28
2019-04-21T17:53:58.576Z,4.37
2019-04-21T17:56:59.561Z,4.42
2019-04-21T17:59:43.224Z,5.25
2019-04-21T18:02:03.938Z,6.58
2019-04-21T18:04:51.012Z,7.95
2019-04-21T18:07:29.057Z,6.03
2019-04-21T18:10:04.946Z,6.40
2019-04-21T18:12:36.143Z,6.12
2019-04-21T18:15:16.305Z,8.20
2019-04-21T18:17:38.573Z,7.70
2019-04-21T18:20:17.492Z,8.38
2019-04-21T18:22:56.841Z,7.60
2019-04-21T18:25:45.090Z,6.80
2019-04-21T18:28:12.553Z,7.92
2019-04-21T18:30:54.225Z,13.30
2019-04-21T18:33:35.513Z,11.90
2019-04-21T18:36:15.842Z,12.28
2019-04-21T18:39:10.320Z,20.05
2019-04-21T18:41:34.488Z,21.20
2019-04-21T18:44:45.859Z,27.80
2019-04-21T18:47:28.871Z,32.25
2019-04-21T18:49:52.387Z,28.73
2019-04-21T18:52:45.564Z,30.92
2019-04-21T18:55:18.945Z,27.98
2019-04-21T18:57:48.410Z,24.67
2019-04-21T19:00:29.206Z,23.27
2019-04-21T19:03:02.051Z,19.82
2019-04-21T19:05:46.822Z,17.20
2019-04-21T19:08:33.687Z,21.50
2019-04-21T19:11:14.873Z,42.17
2019-04-21T19:14:15.867Z,64.92
2019-04-21T19:16:41.611Z,52.30
2019-04-21T19:22:00.105Z,48.63
2019-04-21T19:24:34.708Z,36.98
2019-04-21T19:27:15.660Z,23.45
2019-04-21T19:30:01.686Z,19.05
2019-04-21T19:32:28.939Z,19.37
2019-04-21T19:34:51.329Z,21.82
2019-04-21T19:37:27.925Z,24.90
2019-04-21T19:40:16.338Z,24.60
2019-04-21T19:42:54.979Z,27.15
2019-04-21T19:45:34.005Z,27.17
2019-04-21T19:48:13.680Z,30.82
2019-04-21T19:50:51.545Z,35.28
2019-04-21T19:53:26.764Z,35.52
2019-04-21T19:55:50.157Z,38.00
2019-04-21T19:58:32.264Z,39.25
2019-04-21T20:01:05.589Z,34.73
2019-04-21T20:03:43.083Z,34.23
2019-04-21T20:06:33.031Z,36.10
2019-04-21T20:09:17.872Z,36.55
2019-04-21T20:11:52.402Z,29.10
2019-04-21T20:14:46.831Z,28.15
2019-04-21T20:17:08.059Z,26.73
2019-04-21T20:19:27.878Z,24.50
2019-04-21T20:22:05.155Z,25.88
2019-04-21T20:24:49.995Z,25.20
2019-04-21T20:27:30.794Z,24.70
2019-04-21T20:30:13.510Z,23.12
2019-04-21T20:33:01.854Z,22.90
2019-04-21T20:35:43.343Z,21.68
2019-04-21T20:38:04.716Z,19.20
2019-04-21T20:40:35.636Z,19.75
2019-04-21T20:43:25.074Z,19.40
2019-04-21T20:46:03.827Z,20.95
2019-04-21T20:48:31.914Z,35.15
2019-04-21T20:51:18.318Z,67.55
2019-04-21T20:53:48.975Z,57.65
2019-04-21T20:56:27.007Z,38.17
2019-04-21T20:59:07.503Z,21.97
2019-04-21T21:01:43.362Z,20.95
2019-04-21T21:04:17.574Z,19.70
2019-04-21T21:07:07.855Z,19.85
2019-04-21T21:09:41.495Z,21.70
2019-04-21T21:12:27.611Z,24.30
2019-04-21T21:14:50.282Z,23.75
2019-04-21T21:17:45.386Z,19.67
2019-04-21T21:20:16.262Z,19.07
2019-04-21T21:22:48.069Z,16.10
2019-04-21T21:25:38.242Z,16.90
2019-04-21T21:27:55.157Z,16.80
2019-04-21T21:30:38.553Z,15.98
2019-04-21T21:33:18.501Z,15.28
2019-04-21T21:35:56.707Z,14.30
2019-04-21T21:38:36.380Z,14.35
2019-04-21T21:41:07.610Z,16.40
2019-04-21T21:43:34.891Z,15.00
2019-04-21T21:46:26.633Z,17.32
2019-04-21T21:48:56.284Z,15.93
2019-04-21T21:51:41.215Z,15.38
2019-04-21T21:54:05.192Z,13.03
2019-04-21T21:56:41.114Z,13.83
2019-04-21T21:59:22.883Z,14.15
2019-04-21T22:01:56.311Z,12.43
2019-04-21T22:04:35.585Z,11.35
2019-04-21T22:07:15.191Z,12.00
2019-04-21T22:09:48.266Z,12.37
2019-04-21T22:12:25.701Z,12.28
2019-04-21T22:15:09.002Z,12.85
2019-04-21T22:17:54.375Z,13.22
2019-04-21T22:20:37.317Z,15.28
2019-04-21T22:23:01.978Z,12.73
2019-04-21T22:25:37.325Z,12.50
2019-04-21T22:28:11.695Z,11.70
2019-04-21T22:30:51.257Z,11.20
2019-04-21T22:33:25.948Z,11.55
2019-04-21T22:36:09.945Z,10.55
2019-04-21T22:38:52.192Z,10.95
2019-04-21T22:41:26.340Z,11.95
2019-04-21T22:43:55.952Z,11.20
2019-04-21T22:46:32.762Z,11.22
2019-04-21T22:49:10.801Z,11.68
2019-04-21T22:51:50.048Z,12.18
2019-04-21T22:54:31.466Z,11.70
2019-04-21T22:57:10.111Z,10.93
2019-04-21T22:59:40.571Z,10.30
2019-04-21T23:02:23.756Z,10.70
2019-04-21T23:04:58.037Z,11.97
2019-04-21T23:07:32.916Z,11.90
2019-04-21T23:10:11.562Z,12.65
2019-04-21T23:12:48.046Z,13.72
2019-04-21T23:15:35.641Z,14.25
2019-04-21T23:18:20.430Z,15.10
2019-04-21T23:21:00.441Z,15.30
2019-04-21T23:23:41.926Z,15.75
2019-04-21T23:26:20.968Z,14.75
2019-04-21T23:28:56.899Z,14.68
2019-04-21T23:31:37.258Z,15.43
2019-04-21T23:33:50.364Z,15.18
2019-04-21T23:36:31.461Z,14.05
2019-04-21T23:39:13.189Z,14.30
2019-04-21T23:41:50.629Z,16.45
2019-04-21T23:44:22.186Z,14.20
2019-04-21T23:47:03.437Z,14.20
2019-04-21T23:49:49.492Z,14.00
2019-04-21T23:52:16.127Z,13.95
2019-04-21T23:54:51.692Z,15.95
2019-04-21T23:57:34.336Z,15.15
